createdAt,value
2022-08-29T00:01:25.253Z,66.70
2022-08-29T00:03:57.606Z,66.80
2022-08-29T00:06:26.109Z,67.00
2022-08-29T00:08:54.297Z,67.50
2022-08-29T00:11:22.955Z,67.60
2022-08-29T00:13:52.877Z,67.30
2022-08-29T00:16:21.326Z,67.50
2022-08-29T00:18:49.709Z,67.60
2022-08-29T00:21:20.362Z,68.20
2022-08-29T00:23:48.753Z,67.70
2022-08-29T00:26:19.293Z,67.50
2022-08-29T00:28:47.816Z,67.60
2022-08-29T00:31:16.194Z,67.80
2022-08-29T00:33:45.091Z,67.70
2022-08-29T00:36:13.435Z,67.90
2022-08-29T00:38:43.342Z,68.00
2022-08-29T00:41:13.533Z,67.80
2022-08-29T00:43:42.091Z,68.00
2022-08-29T00:46:31.034Z,68.10
2022-08-29T00:49:05.050Z,68.40
2022-08-29T00:51:33.775Z,69.00
2022-08-29T00:54:10.032Z,68.40
2022-08-29T00:56:39.288Z,68.30
2022-08-29T00:59:12.385Z,68.40
2022-08-29T01:01:41.274Z,68.50
2022-08-29T01:04:15.724Z,68.30
2022-08-29T01:06:53.649Z,68.40
2022-08-29T01:09:24.745Z,68.40
2022-08-29T01:12:11.266Z,68.50
2022-08-29T01:14:41.823Z,68.60
2022-08-29T01:17:12.007Z,69.20
2022-08-29T01:20:25.445Z,68.60
2022-08-29T01:23:02.108Z,68.90
2022-08-29T01:25:35.901Z,68.80
2022-08-29T01:28:09.681Z,69.10
2022-08-29T01:30:40.286Z,69.00
2022-08-29T01:33:09.302Z,69.40
2022-08-29T01:35:38.627Z,69.30
2022-08-29T01:38:07.176Z,69.50
2022-08-29T01:40:37.248Z,69.60
2022-08-29T01:43:05.561Z,69.90
2022-08-29T01:45:33.968Z,70.20
2022-08-29T01:48:03.677Z,70.10
2022-08-29T01:50:33.270Z,70.20
2022-08-29T01:53:02.721Z,70.40
2022-08-29T01:55:30.954Z,70.40
2022-08-29T01:58:00.642Z,70.20
2022-08-29T02:00:29.762Z,70.50
2022-08-29T02:03:00.969Z,70.50
2022-08-29T02:05:30.402Z,70.50
2022-08-29T02:07:59.312Z,70.90
2022-08-29T02:15:26.807Z,71.00
2022-08-29T02:17:55.126Z,71.10
2022-08-29T02:20:36.678Z,72.40
2022-08-29T02:23:13.595Z,71.20
2022-08-29T02:28:20.929Z,71.70
2022-08-29T02:30:56.503Z,72.00
2022-08-29T02:33:25.484Z,72.00
2022-08-29T02:35:54.902Z,72.20
2022-08-29T02:38:23.689Z,72.20
2022-08-29T02:40:52.720Z,72.10
2022-08-29T02:43:21.627Z,72.10
2022-08-29T02:45:51.642Z,72.30
2022-08-29T02:48:20.749Z,72.20
2022-08-29T02:50:51.731Z,72.30
2022-08-29T02:53:24.239Z,72.60
2022-08-29T02:58:24.536Z,72.60
2022-08-29T03:00:56.786Z,72.90
2022-08-29T03:03:25.131Z,73.00
2022-08-29T03:08:23.386Z,73.00
2022-08-29T03:10:52.146Z,73.40
2022-08-29T03:13:21.058Z,73.30
2022-08-29T03:15:49.711Z,73.20
2022-08-29T03:18:19.569Z,73.40
2022-08-29T03:20:50.478Z,73.40
2022-08-29T03:25:49.721Z,73.60
2022-08-29T03:28:18.064Z,73.60
2022-08-29T03:30:47.461Z,73.90
2022-08-29T03:33:15.917Z,73.80
2022-08-29T03:35:45.818Z,73.90
2022-08-29T03:38:14.762Z,73.90
2022-08-29T03:40:43.446Z,74.10
2022-08-29T03:45:42.218Z,73.70
2022-08-29T03:48:10.821Z,74.00
2022-08-29T03:50:39.122Z,74.20
2022-08-29T03:58:06.006Z,74.80
2022-08-29T04:00:34.381Z,74.80
2022-08-29T04:03:02.986Z,75.00
2022-08-29T04:05:31.469Z,75.10
2022-08-29T04:08:01.098Z,75.10
2022-08-29T04:10:35.326Z,74.90
2022-08-29T04:18:07.202Z,75.40
2022-08-29T04:20:39.582Z,75.30
2022-08-29T04:23:08.461Z,75.40
2022-08-29T04:25:38.344Z,75.70
2022-08-29T04:28:07.497Z,75.70
2022-08-29T04:33:04.942Z,75.60
2022-08-29T04:35:35.711Z,75.50
2022-08-29T04:38:04.184Z,75.80
2022-08-29T04:40:32.568Z,75.90
2022-08-29T04:43:03.054Z,75.70
2022-08-29T04:45:33.274Z,76.10
2022-08-29T04:48:03.945Z,76.60
2022-08-29T04:50:32.356Z,76.50
2022-08-29T04:53:00.659Z,76.90
2022-08-29T04:55:29.579Z,76.80
2022-08-29T04:57:57.971Z,77.30
2022-08-29T05:00:30.788Z,77.30
2022-08-29T05:02:59.773Z,77.20
2022-08-29T05:05:28.667Z,77.20
2022-08-29T05:07:56.963Z,77.10
2022-08-29T05:12:55.147Z,77.20
2022-08-29T05:15:23.354Z,77.80
2022-08-29T05:17:53.285Z,77.50
2022-08-29T05:20:22.093Z,77.50
2022-08-29T05:22:50.768Z,77.60
2022-08-29T05:27:48.509Z,77.70
2022-08-29T05:30:34.006Z,77.80
2022-08-29T05:33:05.025Z,77.90
2022-08-29T05:35:33.741Z,78.00
2022-08-29T05:38:07.247Z,77.90
2022-08-29T05:40:37.836Z,78.10
2022-08-29T05:43:06.160Z,78.00
2022-08-29T05:48:08.064Z,78.50
2022-08-29T05:50:39.716Z,78.60
2022-08-29T05:53:08.046Z,78.60
2022-08-29T05:55:40.899Z,79.20
2022-08-29T05:58:09.314Z,79.50
2022-08-29T06:00:40.280Z,78.60
2022-08-29T06:03:11.184Z,78.60
2022-08-29T06:05:40.841Z,79.20
2022-08-29T06:08:09.854Z,79.10
2022-08-29T06:10:43.571Z,79.10
2022-08-29T06:13:12.054Z,79.70
2022-08-29T06:15:43.664Z,79.90
2022-08-29T06:18:14.101Z,80.10
2022-08-29T06:20:43.359Z,79.80
2022-08-29T06:23:11.702Z,79.00
2022-08-29T06:25:40.554Z,79.60
2022-08-29T06:28:09.355Z,78.70
2022-08-29T06:30:37.926Z,79.10
2022-08-29T06:35:38.090Z,77.90
2022-08-29T06:38:10.741Z,78.50
2022-08-29T06:40:41.622Z,78.30
2022-08-29T06:43:09.777Z,78.20
2022-08-29T06:45:42.478Z,77.80
2022-08-29T06:48:11.865Z,77.30
2022-08-29T06:50:45.795Z,76.70
2022-08-29T06:53:26.886Z,74.80
2022-08-29T06:55:56.629Z,71.70
2022-08-29T06:58:24.951Z,68.10
2022-08-29T07:00:53.126Z,63.80
2022-08-29T07:03:23.051Z,60.60
2022-08-29T07:05:55.163Z,59.00
2022-08-29T07:08:23.965Z,57.30
2022-08-29T07:10:52.109Z,55.90
2022-08-29T07:13:20.359Z,54.60
2022-08-29T07:15:48.723Z,54.40
2022-08-29T07:18:18.241Z,53.50
2022-08-29T07:20:46.914Z,54.00
2022-08-29T07:23:17.913Z,53.60
2022-08-29T07:25:46.251Z,54.20
2022-08-29T07:28:14.966Z,54.80
2022-08-29T07:30:43.606Z,55.00
2022-08-29T07:33:11.852Z,55.40
2022-08-29T07:35:39.957Z,56.20
2022-08-29T07:38:08.230Z,56.90
2022-08-29T07:40:38.080Z,57.90
2022-08-29T07:45:35.025Z,57.90
2022-08-29T07:48:03.557Z,58.80
2022-08-29T07:50:37.355Z,58.60
2022-08-29T07:53:05.562Z,59.20
2022-08-29T07:55:33.761Z,59.00
2022-08-29T07:58:07.608Z,58.30
2022-08-29T08:00:36.454Z,57.60
2022-08-29T08:03:06.967Z,57.20
2022-08-29T08:05:35.140Z,57.70
2022-08-29T08:08:08.762Z,57.90
2022-08-29T08:10:43.473Z,58.30
2022-08-29T08:13:14.152Z,57.40
2022-08-29T08:15:43.006Z,57.70
2022-08-29T08:18:12.419Z,58.20
2022-08-29T08:20:48.387Z,59.40
2022-08-29T08:23:17.255Z,58.20
2022-08-29T08:25:45.930Z,58.80
2022-08-29T08:28:17.568Z,60.20
2022-08-29T08:30:46.323Z,62.00
2022-08-29T08:33:14.946Z,59.50
2022-08-29T08:35:46.879Z,59.00
2022-08-29T08:38:17.064Z,59.50
2022-08-29T08:40:50.794Z,58.90
2022-08-29T08:43:28.380Z,59.10
2022-08-29T08:45:58.419Z,59.00
2022-08-29T08:48:34.630Z,58.90
2022-08-29T08:51:07.674Z,59.70
2022-08-29T08:53:39.744Z,59.20
2022-08-29T08:56:15.075Z,58.60
2022-08-29T08:58:53.547Z,58.40
2022-08-29T09:01:26.677Z,59.20
2022-08-29T09:04:18.228Z,59.80
2022-08-29T09:07:11.892Z,59.20
2022-08-29T09:09:53.909Z,59.80
2022-08-29T09:12:34.008Z,58.60
2022-08-29T09:15:13.518Z,58.60
2022-08-29T09:17:46.370Z,58.30
2022-08-29T09:20:18.851Z,59.10
2022-08-29T09:23:01.386Z,59.00
2022-08-29T09:25:31.141Z,58.30
2022-08-29T09:28:01.343Z,58.80
2022-08-29T09:30:33.682Z,58.40
2022-08-29T09:33:05.882Z,58.50
2022-08-29T09:35:39.809Z,56.80
2022-08-29T09:38:13.524Z,57.20
2022-08-29T09:40:46.369Z,56.30
2022-08-29T09:43:20.971Z,55.90
2022-08-29T09:46:24.986Z,55.50
2022-08-29T09:49:13.784Z,56.10
2022-08-29T09:51:44.165Z,56.80
2022-08-29T09:54:17.121Z,57.30
2022-08-29T09:56:53.598Z,57.10
2022-08-29T09:59:27.262Z,57.20
2022-08-29T10:02:19.440Z,57.00
2022-08-29T10:04:52.586Z,55.50
2022-08-29T10:07:23.940Z,56.00
2022-08-29T10:10:02.253Z,55.90
2022-08-29T10:12:44.243Z,54.90
2022-08-29T10:15:46.499Z,55.50
2022-08-29T10:18:54.524Z,55.70
2022-08-29T10:21:51.575Z,53.80
2022-08-29T10:25:07.577Z,54.30
2022-08-29T10:28:03.646Z,54.60
2022-08-29T10:30:38.841Z,54.20
2022-08-29T10:33:35.658Z,54.60
2022-08-29T10:36:14.790Z,53.30
2022-08-29T10:38:51.459Z,53.80
2022-08-29T10:41:33.948Z,54.40
2022-08-29T10:44:28.723Z,53.30
2022-08-29T10:47:17.838Z,53.00
2022-08-29T10:50:02.470Z,52.80
2022-08-29T10:52:39.783Z,52.40
2022-08-29T10:55:21.477Z,51.20
2022-08-29T10:58:00.780Z,51.90
2022-08-29T11:00:39.779Z,51.50
2022-08-29T11:03:22.984Z,53.10
2022-08-29T11:05:57.890Z,50.10
2022-08-29T11:08:36.372Z,50.10
2022-08-29T11:11:06.933Z,50.50
2022-08-29T11:13:41.342Z,50.90
2022-08-29T11:16:17.024Z,49.60
2022-08-29T11:18:52.996Z,49.20
2022-08-29T11:21:45.287Z,50.40
2022-08-29T11:24:16.088Z,50.20
2022-08-29T11:27:02.154Z,49.20
2022-08-29T11:29:37.267Z,49.50
2022-08-29T11:32:13.466Z,50.50
2022-08-29T11:34:51.809Z,49.80
2022-08-29T11:37:59.811Z,49.30
2022-08-29T11:41:26.391Z,48.40
2022-08-29T11:43:39.887Z,49.50
2022-08-29T11:46:12.802Z,48.00
2022-08-29T11:48:43.134Z,48.10
2022-08-29T11:51:34.235Z,47.90
2022-08-29T11:54:50.220Z,48.60
2022-08-29T11:57:56.120Z,48.90
2022-08-29T12:00:42.207Z,49.70
2022-08-29T12:03:54.324Z,49.70
2022-08-29T12:06:53.829Z,49.90
2022-08-29T12:09:46.829Z,51.90
2022-08-29T12:12:46.008Z,49.90
2022-08-29T12:15:55.554Z,49.40
2022-08-29T12:18:44.571Z,51.00
2022-08-29T12:21:44.403Z,49.90
2022-08-29T12:24:31.480Z,50.70
2022-08-29T12:27:00.217Z,50.40
2022-08-29T12:29:31.253Z,50.10
2022-08-29T12:32:28.572Z,50.50
2022-08-29T12:35:23.214Z,51.60
2022-08-29T12:38:05.632Z,50.40
2022-08-29T12:41:01.322Z,50.10
2022-08-29T12:43:38.847Z,51.00
2022-08-29T12:46:14.382Z,52.00
2022-08-29T12:48:57.713Z,52.40
2022-08-29T12:51:34.560Z,51.90
2022-08-29T12:54:03.085Z,52.00
2022-08-29T12:56:31.664Z,50.40
2022-08-29T12:59:04.861Z,50.90
2022-08-29T13:01:38.030Z,51.80
2022-08-29T13:04:16.079Z,50.80
2022-08-29T13:06:54.499Z,51.40
2022-08-29T13:09:27.963Z,52.10
2022-08-29T13:12:09.802Z,52.40
2022-08-29T13:14:52.783Z,51.70
2022-08-29T13:17:23.675Z,50.60
2022-08-29T13:20:30.435Z,51.10
2022-08-29T13:23:15.410Z,51.20
2022-08-29T13:25:50.177Z,51.90
2022-08-29T13:28:22.931Z,51.50
2022-08-29T13:31:31.016Z,51.50
2022-08-29T13:34:21.434Z,51.60
2022-08-29T13:37:02.615Z,52.90
2022-08-29T13:39:44.761Z,52.60
2022-08-29T13:42:27.092Z,52.70
2022-08-29T13:45:16.064Z,52.90
2022-08-29T13:47:53.871Z,52.10
2022-08-29T13:50:23.090Z,51.70
2022-08-29T13:52:55.606Z,51.20
2022-08-29T13:55:26.774Z,51.90
2022-08-29T13:57:56.561Z,51.80
2022-08-29T14:00:32.162Z,52.70
2022-08-29T14:03:05.551Z,52.10
2022-08-29T14:05:35.395Z,52.00
2022-08-29T14:08:04.719Z,52.40
2022-08-29T14:10:35.215Z,51.90
2022-08-29T14:13:04.230Z,52.10
2022-08-29T14:15:33.610Z,51.90
2022-08-29T14:18:01.858Z,52.40
2022-08-29T14:20:31.675Z,52.70
2022-08-29T14:23:00.596Z,53.70
2022-08-29T14:27:59.550Z,52.90
2022-08-29T14:30:28.096Z,53.20
2022-08-29T14:32:57.064Z,53.40
2022-08-29T14:35:26.442Z,53.20
2022-08-29T14:37:56.613Z,52.90
2022-08-29T14:40:26.377Z,52.80
2022-08-29T14:42:59.753Z,53.50
2022-08-29T14:45:28.937Z,52.70
2022-08-29T14:47:57.882Z,53.30
2022-08-29T14:50:26.496Z,53.40
2022-08-29T14:52:55.260Z,53.10
2022-08-29T14:55:23.618Z,52.10
2022-08-29T14:57:52.140Z,53.40
2022-08-29T15:00:24.883Z,53.60
2022-08-29T15:02:53.462Z,53.60
2022-08-29T15:05:24.713Z,53.40
2022-08-29T15:10:23.371Z,52.40
2022-08-29T15:12:52.170Z,52.30
2022-08-29T15:15:29.695Z,52.30
2022-08-29T15:17:58.643Z,52.80
2022-08-29T15:20:47.114Z,53.10
2022-08-29T15:23:15.965Z,52.90
2022-08-29T15:25:45.109Z,52.50
2022-08-29T15:28:20.181Z,52.80
2022-08-29T15:30:51.056Z,53.60
2022-08-29T15:33:19.604Z,53.20
2022-08-29T15:35:48.142Z,52.90
2022-08-29T15:38:17.820Z,52.80
2022-08-29T15:40:47.065Z,53.30
2022-08-29T15:43:15.793Z,53.00
2022-08-29T15:45:44.458Z,53.20
2022-08-29T15:48:14.941Z,52.20
2022-08-29T15:50:43.705Z,52.50
2022-08-29T15:55:44.273Z,53.00
2022-08-29T15:58:14.188Z,53.10
2022-08-29T16:00:42.484Z,54.40
2022-08-29T16:03:10.643Z,53.80
2022-08-29T16:05:41.037Z,53.00
2022-08-29T16:08:11.145Z,53.30
2022-08-29T16:10:45.996Z,53.70
2022-08-29T16:13:15.118Z,52.80
2022-08-29T16:15:44.355Z,51.80
2022-08-29T16:18:13.042Z,52.00
2022-08-29T16:20:42.857Z,51.30
2022-08-29T16:23:11.511Z,51.40
2022-08-29T16:25:40.218Z,51.00
2022-08-29T16:30:45.813Z,51.90
2022-08-29T16:33:14.652Z,52.10
2022-08-29T16:35:45.849Z,51.30
2022-08-29T16:38:14.547Z,51.80
2022-08-29T16:40:59.235Z,51.80
2022-08-29T16:43:31.147Z,50.30
2022-08-29T16:46:06.116Z,51.60
2022-08-29T16:55:38.173Z,50.20
2022-08-29T17:03:52.052Z,50.10
2022-08-29T17:06:22.750Z,49.60
2022-08-29T17:08:50.481Z,50.20
2022-08-29T17:11:21.620Z,50.40
2022-08-29T17:13:48.934Z,50.10
2022-08-29T17:16:16.172Z,49.80
2022-08-29T17:18:45.430Z,50.00
2022-08-29T17:21:43.513Z,50.30
2022-08-29T17:24:12.532Z,50.80
2022-08-29T17:26:45.038Z,50.20
2022-08-29T17:29:13.655Z,50.60
2022-08-29T17:31:42.336Z,50.80
2022-08-29T17:34:11.970Z,51.20
2022-08-29T17:36:44.194Z,51.10
2022-08-29T17:39:12.957Z,51.30
2022-08-29T17:41:41.718Z,50.60
2022-08-29T17:44:13.021Z,51.00
2022-08-29T17:46:41.397Z,50.50
2022-08-29T17:49:11.464Z,51.10
2022-08-29T17:51:40.841Z,50.90
2022-08-29T17:54:14.769Z,51.20
2022-08-29T17:56:45.371Z,51.40
2022-08-29T17:59:13.727Z,51.30
2022-08-29T18:01:42.518Z,51.70
2022-08-29T18:04:11.859Z,51.60
2022-08-29T18:06:40.682Z,51.90
2022-08-29T18:09:11.197Z,51.60
2022-08-29T18:11:41.000Z,51.60
2022-08-29T18:14:09.667Z,51.70
2022-08-29T18:16:37.831Z,51.70
2022-08-29T18:19:07.387Z,51.70
2022-08-29T18:21:38.473Z,51.40
2022-08-29T18:24:13.903Z,51.70
2022-08-29T18:26:42.804Z,51.90
2022-08-29T18:29:11.381Z,51.80
2022-08-29T18:31:39.547Z,52.00
2022-08-29T18:34:07.768Z,52.10
2022-08-29T18:36:38.028Z,51.90
2022-08-29T18:39:14.580Z,52.10
2022-08-29T18:41:45.063Z,52.00
2022-08-29T18:44:13.498Z,51.90
2022-08-29T18:49:17.011Z,51.80
2022-08-29T18:51:45.357Z,51.60
2022-08-29T18:54:17.575Z,51.80
2022-08-29T18:56:49.192Z,51.70
2022-08-29T18:59:17.373Z,51.80
2022-08-29T19:01:45.771Z,51.80
2022-08-29T19:04:14.128Z,52.10
2022-08-29T19:06:42.541Z,52.10
2022-08-29T19:09:11.673Z,52.10
2022-08-29T19:11:40.111Z,52.00
2022-08-29T19:14:09.815Z,52.30
2022-08-29T19:16:39.709Z,52.20
2022-08-29T19:19:13.543Z,52.00
2022-08-29T19:21:41.610Z,52.50
2022-08-29T19:24:10.065Z,51.80
2022-08-29T19:26:42.566Z,51.80
2022-08-29T19:29:15.734Z,51.80
2022-08-29T19:31:46.512Z,51.90
2022-08-29T19:34:14.848Z,51.80
2022-08-29T19:36:46.844Z,51.90
2022-08-29T19:39:15.833Z,51.80
2022-08-29T19:41:44.249Z,51.70
2022-08-29T19:44:14.390Z,51.90
2022-08-29T19:46:46.080Z,51.80
2022-08-29T19:49:17.655Z,52.00
2022-08-29T19:51:45.957Z,52.00
2022-08-29T19:54:16.353Z,52.00
2022-08-29T19:56:46.568Z,52.00
2022-08-29T19:59:17.294Z,52.20
2022-08-29T20:01:47.005Z,52.10
2022-08-29T20:04:15.813Z,52.30
2022-08-29T20:06:46.299Z,52.40
2022-08-29T20:09:16.651Z,52.40
2022-08-29T20:11:44.884Z,52.40
2022-08-29T20:14:22.607Z,52.40
2022-08-29T20:16:52.938Z,52.60
2022-08-29T20:19:21.780Z,52.60
2022-08-29T20:21:50.274Z,52.70
2022-08-29T20:24:19.190Z,52.70
2022-08-29T20:26:49.605Z,52.80
2022-08-29T20:29:18.254Z,52.80
2022-08-29T20:31:46.992Z,52.90
2022-08-29T20:34:17.437Z,53.00
2022-08-29T20:37:02.900Z,53.00
2022-08-29T20:39:31.652Z,52.90
2022-08-29T20:42:02.153Z,53.20
2022-08-29T20:44:34.325Z,53.50
2022-08-29T20:47:02.620Z,53.60
2022-08-29T20:49:32.529Z,53.70
2022-08-29T20:52:01.676Z,53.80
2022-08-29T20:54:30.963Z,53.80
2022-08-29T20:56:59.554Z,53.90
2022-08-29T21:02:02.173Z,54.10
2022-08-29T21:04:49.635Z,54.30
2022-08-29T21:07:18.047Z,54.50
2022-08-29T21:09:50.538Z,54.60
2022-08-29T21:12:22.358Z,54.60
2022-08-29T21:14:56.100Z,54.60
2022-08-29T21:19:54.601Z,54.80
2022-08-29T21:22:25.116Z,54.90
2022-08-29T21:24:55.618Z,55.00
2022-08-29T21:27:23.978Z,55.40
2022-08-29T21:29:52.165Z,55.30
2022-08-29T21:34:52.568Z,55.40
2022-08-29T21:37:24.802Z,55.40
2022-08-29T21:39:53.449Z,55.60
2022-08-29T21:42:21.734Z,55.70
2022-08-29T21:44:50.863Z,55.90
2022-08-29T21:47:19.339Z,55.80
2022-08-29T21:54:54.170Z,56.30
2022-08-29T22:00:12.596Z,56.70
2022-08-29T22:02:42.555Z,56.80
2022-08-29T22:05:11.006Z,56.80
2022-08-29T22:07:40.852Z,57.00
2022-08-29T22:10:17.661Z,57.10
2022-08-29T22:12:45.993Z,57.20
2022-08-29T22:15:33.568Z,57.40
2022-08-29T22:20:55.773Z,57.70
2022-08-29T22:23:25.507Z,57.90
2022-08-29T22:33:23.111Z,58.20
2022-08-29T22:35:51.317Z,58.50
2022-08-29T22:40:48.458Z,58.70
2022-08-29T22:43:18.509Z,58.80
2022-08-29T22:45:47.264Z,59.00
2022-08-29T22:50:51.976Z,59.20
2022-08-29T22:53:26.640Z,59.20
2022-08-29T22:58:25.167Z,59.30
2022-08-29T23:00:53.270Z,59.40
2022-08-29T23:05:50.445Z,59.60
2022-08-29T23:08:21.021Z,59.60
2022-08-29T23:13:18.411Z,59.90
2022-08-29T23:15:48.690Z,59.90
2022-08-29T23:20:57.383Z,59.90
2022-08-29T23:23:25.691Z,59.90
2022-08-29T23:25:54.014Z,59.90
2022-08-29T23:28:22.150Z,60.00
2022-08-29T23:30:52.308Z,60.10
2022-08-29T23:33:20.669Z,60.30
2022-08-29T23:35:48.878Z,60.70
2022-08-29T23:38:17.455Z,60.50
2022-08-29T23:40:46.302Z,60.60
2022-08-29T23:43:14.994Z,60.60
2022-08-29T23:45:43.215Z,60.90
2022-08-29T23:48:15.977Z,60.60
2022-08-29T23:50:44.640Z,60.80
2022-08-29T23:53:19.658Z,60.90
2022-08-29T23:55:48.142Z,60.80
2022-08-29T23:58:16.695Z,60.70
